createdAt,value
2023-02-06T00:00:25.409Z,94243.00
2023-02-06T00:01:25.414Z,94243.00
2023-02-06T00:02:25.440Z,94241.00
2023-02-06T00:03:25.399Z,94245.00
2023-02-06T00:04:25.426Z,94245.00
2023-02-06T00:05:25.432Z,94245.00
2023-02-06T00:06:25.401Z,94247.00
2023-02-06T00:07:25.390Z,94247.00
2023-02-06T01:55:28.106Z,94271.00
2023-02-06T01:56:28.169Z,94269.00
2023-02-06T01:57:28.214Z,94271.00
2023-02-06T01:58:34.207Z,94271.00
2023-02-06T01:59:29.246Z,94269.00
2023-02-06T02:00:28.260Z,94273.00
2023-02-06T02:01:28.232Z,94273.00
2023-02-06T02:02:28.241Z,94269.00
2023-02-06T02:03:28.238Z,94265.00
2023-02-06T02:04:28.244Z,94265.00
2023-02-06T02:05:28.235Z,94263.00
2023-02-06T02:06:28.221Z,94265.00
2023-02-06T02:07:28.226Z,94259.00
2023-02-06T02:08:28.212Z,94259.00
2023-02-06T02:09:28.208Z,94261.00
2023-02-06T02:10:28.196Z,94261.00
2023-02-06T02:11:28.232Z,94263.00
2023-02-06T02:12:28.267Z,94263.00
2023-02-06T02:13:28.309Z,94263.00
2023-02-06T02:14:28.353Z,94261.00
2023-02-06T02:15:28.383Z,94263.00
2023-02-06T02:16:28.423Z,94265.00
2023-02-06T02:17:28.466Z,94265.00
2023-02-06T02:18:28.507Z,94265.00
2023-02-06T02:19:28.558Z,94267.00
2023-02-06T02:20:28.591Z,94267.00
2023-02-06T02:21:28.658Z,94267.00
2023-02-06T02:22:28.695Z,94265.00
2023-02-06T02:23:28.741Z,94263.00
2023-02-06T02:24:31.535Z,94265.00
2023-02-06T02:25:28.768Z,94263.00
2023-02-06T02:26:28.773Z,94261.00
2023-02-06T02:27:28.766Z,94263.00
2023-02-06T02:28:28.778Z,94267.00
2023-02-06T02:29:28.769Z,94269.00
2023-02-06T02:30:28.831Z,94269.00
2023-02-06T02:31:28.775Z,94267.00
2023-02-06T02:32:28.782Z,94261.00
2023-02-06T02:33:28.793Z,94257.00
2023-02-06T02:34:28.768Z,94259.00
2023-02-06T02:35:28.770Z,94257.00
2023-02-06T02:36:28.751Z,94259.00
2023-02-06T02:37:28.759Z,94257.00
2023-02-06T02:38:28.759Z,94253.00
2023-02-06T02:39:28.740Z,94251.00
2023-02-06T02:40:28.745Z,94247.00
2023-02-06T02:41:28.751Z,94247.00
2023-02-06T02:42:28.730Z,94243.00
2023-02-06T02:43:28.723Z,94245.00
2023-02-06T02:44:28.723Z,94249.00
2023-02-06T02:45:28.727Z,94255.00
2023-02-06T02:46:28.696Z,94261.00
2023-02-06T02:47:28.695Z,94265.00
2023-02-06T02:48:28.697Z,94267.00
2023-02-06T02:49:28.690Z,94265.00
2023-02-06T02:50:28.686Z,94261.00
2023-02-06T02:51:28.688Z,94261.00
2023-02-06T02:52:28.682Z,94263.00
2023-02-06T02:53:28.669Z,94261.00
2023-02-06T02:54:28.719Z,94265.00
2023-02-06T02:55:28.669Z,94267.00
2023-02-06T02:56:28.668Z,94263.00
2023-02-06T02:57:28.649Z,94261.00
2023-02-06T02:58:28.652Z,94261.00
2023-02-06T02:59:28.632Z,94259.00
2023-02-06T03:00:28.625Z,94261.00
2023-02-06T03:01:28.611Z,94257.00
2023-02-06T03:02:28.691Z,94253.00
2023-02-06T03:03:28.614Z,94253.00
2023-02-06T03:04:28.617Z,94253.00
2023-02-06T03:05:28.615Z,94251.00
2023-02-06T03:06:28.612Z,94251.00
2023-02-06T03:07:28.604Z,94249.00
2023-02-06T03:08:28.598Z,94251.00
2023-02-06T03:09:28.607Z,94251.00
2023-02-06T03:10:28.598Z,94251.00
2023-02-06T03:11:28.603Z,94249.00
2023-02-06T03:12:28.587Z,94249.00
2023-02-06T03:13:28.605Z,94253.00
2023-02-06T03:14:28.593Z,94255.00
2023-02-06T03:15:28.589Z,94259.00
2023-02-06T03:16:28.607Z,94263.00
2023-02-06T03:17:28.637Z,94261.00
2023-02-06T03:18:28.677Z,94259.00
2023-02-06T03:19:28.721Z,94263.00
2023-02-06T03:20:28.771Z,94263.00
2023-02-06T03:21:28.801Z,94263.00
2023-02-06T03:22:28.860Z,94261.00
2023-02-06T03:23:28.884Z,94263.00
2023-02-06T03:24:28.938Z,94263.00
2023-02-06T03:25:28.988Z,94265.00
2023-02-06T03:26:29.009Z,94263.00
2023-02-06T03:27:29.061Z,94263.00
2023-02-06T03:28:29.082Z,94265.00
2023-02-06T03:29:29.139Z,94263.00
2023-02-06T03:30:29.235Z,94261.00
2023-02-06T03:31:29.264Z,94259.00
2023-02-06T03:32:29.281Z,94257.00
2023-02-06T03:33:29.320Z,94259.00
2023-02-06T03:34:29.350Z,94259.00
2023-02-06T03:35:29.394Z,94257.00
2023-02-06T03:36:29.448Z,94259.00
2023-02-06T03:37:29.495Z,94257.00
2023-02-06T03:38:29.548Z,94257.00
2023-02-06T03:39:29.586Z,94259.00
2023-02-06T03:40:29.637Z,94261.00
2023-02-06T03:41:29.670Z,94259.00
2023-02-06T03:42:29.716Z,94259.00
2023-02-06T03:43:29.765Z,94257.00
2023-02-06T03:44:29.804Z,94253.00
2023-02-06T03:45:29.843Z,94253.00
2023-02-06T03:46:29.879Z,94255.00
2023-02-06T03:47:29.921Z,94255.00
2023-02-06T03:48:29.964Z,94251.00
2023-02-06T03:49:30.014Z,94247.00
2023-02-06T03:50:30.037Z,94253.00
2023-02-06T03:51:30.075Z,94251.00
2023-02-06T04:18:30.827Z,94288.00
2023-02-06T04:32:31.106Z,94276.00
2023-02-06T11:28:38.275Z,94040.00
2023-02-06T12:18:38.133Z,93938.00
2023-02-06T12:19:38.175Z,93934.00
2023-02-06T12:20:38.235Z,93934.00
2023-02-06T12:21:38.273Z,93932.00
2023-02-06T12:22:38.319Z,93930.00
2023-02-06T12:23:38.372Z,93924.00
2023-02-06T12:24:38.402Z,93920.00
2023-02-06T12:25:38.757Z,93912.00
2023-02-06T12:26:38.439Z,93910.00
2023-02-06T12:27:39.506Z,93908.00
2023-02-06T12:28:38.410Z,93906.00
2023-02-06T12:29:38.394Z,93906.00
2023-02-06T12:30:38.576Z,93908.00
2023-02-06T12:31:38.722Z,93906.00
2023-02-06T12:32:38.606Z,93906.00
2023-02-06T12:33:38.599Z,93904.00
2023-02-06T12:34:38.587Z,93904.00
2023-02-06T12:35:38.927Z,93904.00
2023-02-06T12:36:38.622Z,93900.00
2023-02-06T12:37:38.610Z,93897.00
2023-02-06T12:38:38.616Z,93899.00
2023-02-06T12:39:38.613Z,93897.00
2023-02-06T12:40:38.613Z,93893.00
2023-02-06T12:41:38.615Z,93893.00
2023-02-06T12:42:38.600Z,93891.00
2023-02-06T12:43:38.607Z,93887.00
2023-02-06T12:44:38.607Z,93885.00
2023-02-06T12:45:38.892Z,93877.00
2023-02-06T12:46:38.619Z,93875.00
2023-02-06T12:47:38.627Z,93875.00
2023-02-06T12:48:38.637Z,93877.00
2023-02-06T12:49:38.647Z,93875.00
2023-02-06T12:50:38.636Z,93875.00
2023-02-06T12:51:38.640Z,93875.00
2023-02-06T12:52:38.651Z,93871.00
2023-02-06T12:53:38.676Z,93869.00
2023-02-06T12:54:38.673Z,93867.00
2023-02-06T12:55:39.043Z,93863.00
2023-02-06T12:56:38.692Z,93861.00
2023-02-06T12:57:38.702Z,93859.00
2023-02-06T12:58:38.715Z,93857.00
2023-02-06T12:59:52.161Z,93859.00
2023-02-06T13:01:38.723Z,93855.00
2023-02-06T13:04:38.644Z,93859.00
2023-02-06T13:06:38.600Z,93863.00
2023-02-06T13:07:48.678Z,93861.00
2023-02-06T13:09:40.949Z,93854.00
2023-02-06T13:10:38.811Z,93855.00
2023-02-06T13:11:38.540Z,93852.00
2023-02-06T13:12:38.508Z,93848.00
2023-02-06T13:13:38.485Z,93848.00
2023-02-06T13:14:40.071Z,93846.00
2023-02-06T13:15:38.675Z,93846.00
2023-02-06T13:16:38.432Z,93844.00
2023-02-06T13:17:38.423Z,93844.00
2023-02-06T13:18:38.404Z,93846.00
2023-02-06T13:19:38.388Z,93842.00
2023-02-06T13:20:38.371Z,93842.00
2023-02-06T13:21:38.352Z,93838.00
2023-02-06T13:28:38.273Z,93834.00
2023-02-06T13:29:38.257Z,93828.00
2023-02-06T13:30:38.259Z,93826.00
2023-02-06T13:31:38.285Z,93824.00
2023-02-06T13:32:40.710Z,93818.00
2023-02-06T13:33:38.369Z,93816.00
2023-02-06T13:34:38.412Z,93812.00
2023-02-06T13:35:38.650Z,93808.00
2023-02-06T13:36:38.441Z,93807.00
2023-02-06T13:37:38.449Z,93808.00
2023-02-06T13:38:38.485Z,93808.00
2023-02-06T13:39:38.517Z,93808.00
2023-02-06T13:40:38.548Z,93810.00
2023-02-06T13:41:38.588Z,93805.00
2023-02-06T13:42:38.594Z,93805.00
2023-02-06T13:43:38.631Z,93805.00
2023-02-06T13:44:38.677Z,93805.00
2023-02-06T15:04:41.772Z,93750.00
2023-02-06T15:05:41.821Z,93742.00
2023-02-06T15:06:41.852Z,93740.00
2023-02-06T15:07:41.901Z,93738.00
2023-02-06T15:08:41.952Z,93736.00
2023-02-06T15:09:42.011Z,93736.00
2023-02-06T15:10:42.046Z,93736.00
2023-02-06T15:11:42.093Z,93736.00
2023-02-06T15:12:42.143Z,93738.00
2023-02-06T18:30:45.672Z,93861.00
2023-02-06T19:39:47.093Z,93877.00
2023-02-06T20:16:48.152Z,93918.00
2023-02-06T20:17:48.142Z,93920.00
2023-02-06T20:18:48.175Z,93916.00
2023-02-06T20:19:48.209Z,93920.00
2023-02-06T20:20:48.240Z,93926.00
2023-02-06T20:21:48.280Z,93926.00
2023-02-06T20:22:48.297Z,93920.00
2023-02-06T20:23:48.337Z,93920.00
2023-02-06T20:24:48.370Z,93924.00
2023-02-06T20:25:48.397Z,93926.00
2023-02-06T20:26:48.426Z,93926.00
2023-02-06T20:27:48.470Z,93930.00
2023-02-06T20:28:48.517Z,93926.00
2023-02-06T20:29:48.503Z,93922.00
2023-02-06T20:30:48.598Z,93926.00
2023-02-06T20:31:48.718Z,93926.00
2023-02-06T20:32:48.580Z,93930.00
2023-02-06T20:33:48.594Z,93928.00
2023-02-06T20:34:48.631Z,93930.00
2023-02-06T20:35:48.660Z,93928.00
2023-02-06T20:36:48.686Z,93932.00
2023-02-06T20:37:48.707Z,93930.00
2023-02-06T20:38:48.727Z,93930.00
2023-02-06T20:39:48.753Z,93928.00
2023-02-06T20:40:48.788Z,93930.00
2023-02-06T20:41:48.822Z,93930.00
2023-02-06T20:42:48.845Z,93934.00
2023-02-06T20:43:48.885Z,93934.00
2023-02-06T20:44:48.929Z,93932.00
2023-02-06T20:45:48.956Z,93934.00
2023-02-06T20:46:48.991Z,93936.00
2023-02-06T20:47:49.005Z,93936.00
2023-02-06T20:48:49.028Z,93938.00
2023-02-06T20:49:49.069Z,93936.00
2023-02-06T20:50:49.096Z,93936.00
2023-02-06T20:51:49.134Z,93934.00
2023-02-06T20:52:49.168Z,93934.00
2023-02-06T20:53:49.199Z,93936.00
2023-02-06T20:54:49.232Z,93938.00
2023-02-06T20:55:49.259Z,93940.00
2023-02-06T20:56:49.312Z,93940.00
2023-02-06T20:57:49.324Z,93944.00
2023-02-06T20:58:49.350Z,93946.00
2023-02-06T20:59:49.397Z,93947.00
2023-02-06T21:00:49.420Z,93955.00
2023-02-06T21:01:49.462Z,93959.00
2023-02-06T21:02:51.050Z,93963.00
2023-02-06T21:03:49.472Z,93971.00
2023-02-06T21:04:49.473Z,93971.00
2023-02-06T21:05:49.468Z,93973.00
2023-02-06T21:06:49.468Z,93977.00
2023-02-06T21:07:49.458Z,93977.00
2023-02-06T21:08:49.442Z,93985.00
2023-02-06T21:09:49.427Z,93985.00
2023-02-06T21:10:49.414Z,93991.00
2023-02-06T21:11:49.413Z,93989.00
2023-02-06T21:21:49.320Z,93993.00
2023-02-06T21:22:49.300Z,93996.00
2023-02-06T21:23:49.285Z,94002.00
2023-02-06T21:24:49.276Z,94000.00
2023-02-06T21:25:49.272Z,94002.00
2023-02-06T21:26:49.268Z,94004.00
2023-02-06T21:27:49.295Z,94004.00
2023-02-06T21:28:49.240Z,94000.00
2023-02-06T21:29:49.229Z,94000.00
2023-02-06T21:30:49.350Z,93996.00
2023-02-06T21:31:49.495Z,93998.00
2023-02-06T21:32:49.214Z,93993.00
2023-02-06T21:33:49.209Z,93996.00
2023-02-06T21:34:49.200Z,93993.00
2023-02-06T21:35:49.201Z,93987.00
2023-02-06T21:36:49.188Z,93981.00
2023-02-06T21:37:49.193Z,93983.00
2023-02-06T21:38:49.182Z,93981.00
2023-02-06T21:39:49.181Z,93983.00
2023-02-06T21:40:49.178Z,93979.00
2023-02-06T21:41:49.164Z,93979.00
2023-02-06T21:42:49.172Z,93975.00
2023-02-06T21:43:49.163Z,93977.00
2023-02-06T21:44:49.162Z,93977.00
2023-02-06T21:45:49.182Z,93983.00
2023-02-06T21:46:49.154Z,93985.00
2023-02-06T21:47:49.146Z,93989.00
2023-02-06T21:48:49.134Z,93994.00
2023-02-06T21:49:49.135Z,93994.00
2023-02-06T21:50:49.125Z,94000.00
2023-02-06T21:51:49.122Z,94002.00
2023-02-06T21:52:49.122Z,94008.00
2023-02-06T21:53:49.195Z,94008.00
2023-02-06T21:54:49.098Z,94008.00
2023-02-06T21:55:49.101Z,94010.00
2023-02-06T21:56:49.094Z,94006.00
2023-02-06T21:57:49.095Z,94008.00
2023-02-06T21:58:49.088Z,94004.00
2023-02-06T21:59:49.083Z,94004.00
2023-02-06T22:00:49.059Z,94002.00
2023-02-06T22:01:49.060Z,94002.00
2023-02-06T22:02:49.068Z,94002.00
2023-02-06T22:03:49.051Z,94002.00
2023-02-06T22:04:49.044Z,94006.00
2023-02-06T22:05:49.058Z,94002.00
2023-02-06T22:06:49.200Z,94002.00
2023-02-06T22:07:49.124Z,93998.00
2023-02-06T22:08:49.164Z,93998.00
2023-02-06T22:09:49.177Z,93998.00
2023-02-06T22:10:49.209Z,94002.00
2023-02-06T22:11:49.244Z,94002.00
2023-02-06T22:12:49.266Z,94002.00
2023-02-06T22:13:49.298Z,94000.00
2023-02-06T22:14:49.327Z,94000.00
2023-02-06T22:15:49.367Z,94000.00
2023-02-06T22:16:49.392Z,94006.00
2023-02-06T22:17:49.420Z,94004.00
2023-02-06T22:18:49.457Z,94012.00
2023-02-06T22:19:49.496Z,94014.00
2023-02-06T22:20:49.514Z,94020.00
2023-02-06T22:21:49.553Z,94018.00
2023-02-06T22:22:49.579Z,94016.00
2023-02-06T22:23:49.641Z,94014.00
2023-02-06T22:24:49.652Z,94010.00
2023-02-06T22:25:49.692Z,94006.00
2023-02-06T22:26:49.729Z,94004.00
2023-02-06T22:27:49.783Z,94006.00
2023-02-06T22:28:49.796Z,94008.00
2023-02-06T22:29:49.827Z,94004.00
2023-02-06T22:30:49.866Z,94000.00
2023-02-06T22:31:49.976Z,94002.00
2023-02-06T22:32:49.930Z,94006.00
2023-02-06T22:33:49.976Z,94012.00
2023-02-06T22:34:50.010Z,94012.00
2023-02-06T22:35:50.046Z,94014.00
2023-02-06T22:36:50.076Z,94014.00
2023-02-06T22:37:50.137Z,94014.00
2023-02-06T22:38:50.165Z,94014.00
2023-02-06T22:39:50.200Z,94012.00
2023-02-06T22:40:50.232Z,94010.00
2023-02-06T22:41:50.268Z,94008.00
2023-02-06T22:42:50.304Z,94006.00
2023-02-06T22:43:50.347Z,94008.00
2023-02-06T22:44:50.386Z,94006.00
2023-02-06T22:45:50.421Z,94004.00
2023-02-06T22:46:50.509Z,94004.00
2023-02-06T22:47:50.500Z,94002.00
2023-02-06T22:48:50.521Z,94008.00
2023-02-06T22:49:50.581Z,94006.00
2023-02-06T22:50:50.598Z,94010.00
2023-02-06T22:51:50.636Z,94012.00
2023-02-06T22:52:50.682Z,94014.00
2023-02-06T22:53:50.705Z,94020.00
2023-02-06T22:54:50.741Z,94024.00
2023-02-06T22:55:50.774Z,94032.00
2023-02-06T22:56:50.847Z,94034.00
2023-02-06T22:57:50.852Z,94040.00
2023-02-06T22:58:50.888Z,94041.00
2023-02-06T22:59:50.924Z,94041.00
2023-02-06T23:00:50.982Z,94043.00
2023-02-06T23:01:51.020Z,94047.00
2023-02-06T23:02:51.017Z,94049.00
2023-02-06T23:03:51.064Z,94049.00
2023-02-06T23:04:51.107Z,94051.00
2023-02-06T23:05:51.145Z,94049.00
2023-02-06T23:06:51.190Z,94053.00
2023-02-06T23:07:51.223Z,94051.00
2023-02-06T23:08:51.272Z,94055.00
2023-02-06T23:09:51.295Z,94057.00
2023-02-06T23:10:51.348Z,94055.00
2023-02-06T23:11:51.380Z,94055.00
2023-02-06T23:12:51.409Z,94053.00
2023-02-06T23:13:51.449Z,94055.00
2023-02-06T23:14:51.476Z,94055.00
2023-02-06T23:15:51.598Z,94059.00
2023-02-06T23:16:51.540Z,94059.00
2023-02-06T23:17:51.576Z,94063.00
2023-02-06T23:18:51.614Z,94063.00
2023-02-06T23:19:51.663Z,94059.00
2023-02-06T23:20:51.691Z,94059.00
2023-02-06T23:21:51.725Z,94057.00
2023-02-06T23:22:51.765Z,94057.00
2023-02-06T23:23:51.791Z,94055.00
2023-02-06T23:24:51.846Z,94053.00
2023-02-06T23:25:51.882Z,94053.00
2023-02-06T23:26:51.913Z,94051.00
2023-02-06T23:27:51.968Z,94051.00
2023-02-06T23:28:51.992Z,94055.00
2023-02-06T23:29:52.032Z,94061.00
2023-02-06T23:30:52.141Z,94065.00
2023-02-06T23:31:52.252Z,94073.00
2023-02-06T23:32:52.138Z,94077.00
2023-02-06T23:33:52.178Z,94081.00
2023-02-06T23:34:52.213Z,94085.00
2023-02-06T23:35:52.248Z,94094.00
2023-02-06T23:36:52.298Z,94090.00
2023-02-06T23:37:52.307Z,94098.00
2023-02-06T23:38:52.340Z,94096.00
2023-02-06T23:39:52.378Z,94100.00
2023-02-06T23:40:52.409Z,94106.00
2023-02-06T23:41:52.445Z,94110.00
2023-02-06T23:42:52.478Z,94116.00
2023-02-06T23:43:52.521Z,94120.00
2023-02-06T23:44:52.549Z,94120.00
2023-02-06T23:45:52.590Z,94118.00
2023-02-06T23:46:52.609Z,94116.00
2023-02-06T23:47:52.640Z,94112.00
2023-02-06T23:48:52.687Z,94110.00
2023-02-06T23:49:52.723Z,94106.00
2023-02-06T23:50:52.757Z,94108.00
2023-02-06T23:51:52.790Z,94108.00
2023-02-06T23:52:52.837Z,94110.00
2023-02-06T23:53:52.868Z,94114.00
2023-02-06T23:54:52.939Z,94112.00
2023-02-06T23:55:52.943Z,94114.00
2023-02-06T23:56:52.985Z,94116.00
2023-02-06T23:57:53.019Z,94114.00
2023-02-06T23:58:53.066Z,94118.00
2023-02-06T23:59:53.107Z,94122.00
